createdAt,value
2023-06-30T00:00:19.058Z,52.91
2023-06-30T00:02:48.980Z,52.90
2023-06-30T00:05:18.926Z,52.92
2023-06-30T00:07:52.397Z,52.91
2023-06-30T00:10:19.998Z,52.90
2023-06-30T00:12:46.676Z,52.89
2023-06-30T00:15:13.617Z,52.88
2023-06-30T00:17:40.292Z,52.87
2023-06-30T00:20:07.596Z,52.84
2023-06-30T00:22:35.019Z,52.87
2023-06-30T00:25:04.955Z,52.83
2023-06-30T00:27:34.531Z,52.80
2023-06-30T00:30:04.701Z,52.82
2023-06-30T00:32:33.881Z,52.82
2023-06-30T00:35:01.530Z,52.83
2023-06-30T00:37:32.448Z,52.83
2023-06-30T00:40:02.490Z,52.83
2023-06-30T00:42:29.174Z,52.84
2023-06-30T00:45:05.273Z,52.85
2023-06-30T00:47:36.400Z,52.84
2023-06-30T00:50:03.556Z,52.85
2023-06-30T00:52:33.739Z,52.84
2023-06-30T00:55:03.913Z,52.84
2023-06-30T00:57:30.675Z,52.86
2023-06-30T01:00:01.983Z,52.86
2023-06-30T01:02:32.136Z,52.86
2023-06-30T01:05:08.145Z,52.84
2023-06-30T01:07:38.088Z,52.85
2023-06-30T01:10:12.912Z,52.83
2023-06-30T01:12:43.431Z,52.85
2023-06-30T01:15:10.974Z,52.85
2023-06-30T01:17:43.314Z,52.88
2023-06-30T01:20:14.211Z,52.88
2023-06-30T01:23:01.254Z,52.88
2023-06-30T01:25:31.680Z,52.88
2023-06-30T01:28:07.300Z,52.87
2023-06-30T01:30:34.389Z,52.90
2023-06-30T01:33:04.936Z,52.88
2023-06-30T01:35:34.860Z,52.89
2023-06-30T01:38:04.607Z,52.89
2023-06-30T01:40:31.818Z,52.89
2023-06-30T01:43:01.890Z,52.89
2023-06-30T01:45:30.239Z,52.88
2023-06-30T01:47:57.879Z,52.88
2023-06-30T01:50:28.579Z,52.88
2023-06-30T01:53:00.293Z,52.88
2023-06-30T01:55:30.377Z,52.88
2023-06-30T01:57:59.794Z,52.86
2023-06-30T02:00:26.410Z,52.88
2023-06-30T02:02:56.004Z,52.87
2023-06-30T02:05:22.788Z,52.90
2023-06-30T02:07:50.531Z,52.89
2023-06-30T02:10:25.187Z,52.91
2023-06-30T02:12:52.024Z,52.91
2023-06-30T02:15:24.884Z,52.92
2023-06-30T02:17:55.313Z,52.93
2023-06-30T02:20:25.008Z,52.93
2023-06-30T02:22:57.479Z,52.94
2023-06-30T02:25:26.222Z,52.95
2023-06-30T02:27:56.146Z,52.92
2023-06-30T02:30:26.277Z,52.92
2023-06-30T02:32:55.681Z,52.92
2023-06-30T02:35:26.247Z,52.94
2023-06-30T02:37:53.056Z,52.96
2023-06-30T02:40:32.003Z,52.95
2023-06-30T02:43:04.875Z,53.01
2023-06-30T02:45:34.971Z,53.00
2023-06-30T02:48:04.844Z,52.99
2023-06-30T02:50:34.923Z,53.00
2023-06-30T02:53:05.470Z,53.03
2023-06-30T02:55:37.321Z,53.02
2023-06-30T02:58:06.167Z,53.02
2023-06-30T03:00:36.293Z,53.00
2023-06-30T03:03:06.101Z,53.00
2023-06-30T03:05:38.326Z,53.00
2023-06-30T03:08:08.271Z,52.98
2023-06-30T03:10:35.058Z,52.98
2023-06-30T03:13:01.769Z,52.99
2023-06-30T03:15:31.549Z,52.99
2023-06-30T03:17:58.336Z,52.99
2023-06-30T03:20:27.872Z,53.01
2023-06-30T03:22:57.961Z,53.00
2023-06-30T03:25:24.632Z,53.02
2023-06-30T03:27:51.317Z,53.02
2023-06-30T03:30:23.954Z,53.01
2023-06-30T03:32:54.520Z,53.01
2023-06-30T03:35:26.883Z,53.02
2023-06-30T03:37:54.290Z,53.03
2023-06-30T03:40:20.919Z,53.03
2023-06-30T03:42:50.630Z,53.02
2023-06-30T03:45:17.559Z,53.02
2023-06-30T03:47:47.246Z,53.03
2023-06-30T03:50:26.402Z,53.04
2023-06-30T03:52:59.201Z,53.06
2023-06-30T03:55:28.977Z,53.07
2023-06-30T03:58:08.666Z,53.07
2023-06-30T04:00:35.494Z,53.08
2023-06-30T04:03:05.557Z,53.08
2023-06-30T04:05:37.964Z,53.10
2023-06-30T04:08:04.872Z,53.11
2023-06-30T04:10:34.560Z,53.12
2023-06-30T04:13:01.458Z,53.11
2023-06-30T04:15:33.401Z,53.16
2023-06-30T04:18:00.081Z,53.19
2023-06-30T04:20:27.061Z,53.23
2023-06-30T04:22:56.545Z,52.73
2023-06-30T04:25:24.722Z,51.81
2023-06-30T04:27:51.547Z,51.38
2023-06-30T04:30:21.864Z,51.34
2023-06-30T04:32:49.034Z,51.31
2023-06-30T04:35:16.261Z,51.37
2023-06-30T04:37:43.113Z,51.50
2023-06-30T04:40:10.066Z,51.65
2023-06-30T04:42:38.377Z,51.64
2023-06-30T04:45:05.915Z,51.79
2023-06-30T04:47:32.752Z,51.81
2023-06-30T04:49:59.639Z,52.02
2023-06-30T04:52:32.200Z,52.28
2023-06-30T04:55:01.921Z,52.45
2023-06-30T04:57:28.611Z,52.54
2023-06-30T04:59:55.348Z,52.47
2023-06-30T05:02:22.247Z,52.60
2023-06-30T05:04:48.996Z,52.78
2023-06-30T05:07:15.723Z,53.09
2023-06-30T05:09:46.007Z,53.25
2023-06-30T05:12:12.595Z,53.17
2023-06-30T05:14:39.243Z,53.07
2023-06-30T05:17:06.092Z,53.02
2023-06-30T05:19:38.073Z,53.11
2023-06-30T05:22:08.187Z,53.27
2023-06-30T05:24:41.689Z,53.30
2023-06-30T05:27:12.053Z,53.40
2023-06-30T05:29:39.348Z,53.41
2023-06-30T05:32:06.784Z,53.37
2023-06-30T05:34:36.599Z,53.39
2023-06-30T05:37:07.067Z,53.39
2023-06-30T05:39:42.286Z,53.40
2023-06-30T05:42:15.407Z,53.38
2023-06-30T05:44:42.186Z,53.39
2023-06-30T05:47:11.265Z,53.79
2023-06-30T05:49:39.744Z,53.70
2023-06-30T05:52:07.226Z,53.75
2023-06-30T05:54:36.685Z,53.94
2023-06-30T05:57:07.440Z,53.84
2023-06-30T05:59:37.430Z,53.93
2023-06-30T06:02:07.314Z,53.94
2023-06-30T06:04:40.630Z,54.29
2023-06-30T06:07:17.423Z,53.91
2023-06-30T06:09:44.191Z,53.91
2023-06-30T06:12:11.962Z,53.62
2023-06-30T06:14:44.222Z,53.70
2023-06-30T06:17:14.389Z,53.84
2023-06-30T06:19:41.563Z,54.07
2023-06-30T06:22:11.332Z,53.96
2023-06-30T06:24:40.735Z,53.73
2023-06-30T06:27:08.934Z,53.80
2023-06-30T06:29:38.788Z,53.89
2023-06-30T06:32:06.158Z,54.34
2023-06-30T06:34:36.063Z,54.37
2023-06-30T06:37:02.808Z,54.27
2023-06-30T06:39:29.947Z,54.83
2023-06-30T06:41:59.892Z,54.93
2023-06-30T06:44:32.660Z,54.92
2023-06-30T06:47:18.029Z,54.81
2023-06-30T06:49:47.449Z,54.80
2023-06-30T06:52:20.394Z,54.34
2023-06-30T06:54:47.236Z,54.52
2023-06-30T06:57:24.740Z,54.37
2023-06-30T06:59:54.152Z,54.26
2023-06-30T07:02:27.414Z,53.80
2023-06-30T07:04:55.466Z,54.28
2023-06-30T07:07:25.596Z,53.87
2023-06-30T07:09:58.999Z,54.01
2023-06-30T07:12:25.860Z,53.94
2023-06-30T07:14:52.924Z,53.09
2023-06-30T07:17:26.027Z,52.91
2023-06-30T07:19:55.863Z,53.34
2023-06-30T07:22:28.937Z,52.69
2023-06-30T07:24:58.887Z,52.90
2023-06-30T07:27:29.017Z,52.84
2023-06-30T07:29:56.283Z,52.83
2023-06-30T07:32:25.898Z,53.11
2023-06-30T07:34:56.444Z,53.11
2023-06-30T07:37:26.640Z,53.11
2023-06-30T07:40:00.145Z,53.12
2023-06-30T07:42:35.364Z,53.22
2023-06-30T07:45:06.893Z,53.16
2023-06-30T07:47:43.476Z,53.10
2023-06-30T07:50:28.343Z,53.28
2023-06-30T07:52:58.345Z,53.31
2023-06-30T07:55:28.439Z,53.38
2023-06-30T07:57:57.953Z,53.36
2023-06-30T08:00:33.793Z,53.49
2023-06-30T08:03:03.491Z,53.45
2023-06-30T08:05:36.903Z,53.55
2023-06-30T08:08:07.054Z,53.49
2023-06-30T08:10:40.864Z,53.45
2023-06-30T08:13:12.421Z,53.47
2023-06-30T08:15:39.412Z,53.49
2023-06-30T08:18:10.670Z,53.44
2023-06-30T08:20:39.095Z,53.48
2023-06-30T08:23:05.927Z,53.47
2023-06-30T08:25:32.760Z,53.46
2023-06-30T08:28:06.168Z,53.45
2023-06-30T08:30:33.302Z,53.43
2023-06-30T08:33:03.526Z,53.35
2023-06-30T08:35:36.687Z,53.37
2023-06-30T08:38:07.721Z,53.30
2023-06-30T08:40:37.879Z,53.34
2023-06-30T08:43:12.568Z,53.35
2023-06-30T08:45:51.676Z,53.28
2023-06-30T08:48:28.906Z,53.15
2023-06-30T08:53:39.538Z,52.84
2023-06-30T08:56:09.318Z,52.61
2023-06-30T08:58:38.741Z,52.75
2023-06-30T09:01:09.213Z,52.94
2023-06-30T09:03:44.428Z,52.91
2023-06-30T09:06:18.100Z,53.12
2023-06-30T09:08:57.844Z,53.47
2023-06-30T09:11:30.162Z,53.53
2023-06-30T09:14:00.616Z,53.29
2023-06-30T09:16:36.239Z,53.51
2023-06-30T09:19:12.170Z,53.89
2023-06-30T09:21:42.718Z,54.14
2023-06-30T09:24:15.339Z,53.36
2023-06-30T09:26:42.470Z,53.55
2023-06-30T09:29:09.410Z,53.80
2023-06-30T09:31:38.779Z,53.73
2023-06-30T09:34:13.584Z,53.95
2023-06-30T09:36:47.219Z,53.90
2023-06-30T09:39:15.627Z,54.38
2023-06-30T09:41:43.154Z,54.44
2023-06-30T09:44:15.914Z,54.35
2023-06-30T09:46:54.268Z,54.41
2023-06-30T09:49:28.000Z,54.16
2023-06-30T09:51:56.079Z,54.05
2023-06-30T09:54:43.734Z,53.71
2023-06-30T09:57:11.528Z,53.86
2023-06-30T09:59:42.062Z,54.18
2023-06-30T10:02:13.909Z,54.25
2023-06-30T10:04:44.123Z,54.15
2023-06-30T10:07:17.261Z,54.30
2023-06-30T10:09:56.484Z,54.00
2023-06-30T10:12:31.057Z,54.05
2023-06-30T10:15:03.566Z,53.90
2023-06-30T10:17:31.652Z,54.04
2023-06-30T10:20:08.357Z,53.45
2023-06-30T10:22:41.064Z,52.98
2023-06-30T10:25:17.641Z,53.30
2023-06-30T10:27:51.315Z,53.43
2023-06-30T10:30:21.432Z,53.49
2023-06-30T10:32:50.884Z,53.46
2023-06-30T10:35:23.748Z,53.39
2023-06-30T10:37:53.677Z,53.29
2023-06-30T10:40:31.804Z,52.90
2023-06-30T10:42:59.434Z,53.30
2023-06-30T10:45:50.280Z,53.96
2023-06-30T10:48:20.404Z,53.44
2023-06-30T10:50:50.558Z,53.39
2023-06-30T10:53:20.192Z,53.35
2023-06-30T10:55:48.155Z,53.21
2023-06-30T10:58:24.922Z,53.15
2023-06-30T11:01:09.499Z,53.28
2023-06-30T11:03:54.891Z,53.09
2023-06-30T11:06:25.560Z,53.39
2023-06-30T11:09:09.175Z,53.33
2023-06-30T11:11:51.687Z,53.67
2023-06-30T11:14:36.888Z,53.59
2023-06-30T11:17:09.498Z,53.68
2023-06-30T11:19:39.667Z,53.39
2023-06-30T11:22:30.153Z,53.56
2023-06-30T11:24:58.945Z,53.59
2023-06-30T11:27:36.152Z,53.71
2023-06-30T11:30:27.444Z,53.67
2023-06-30T11:33:00.862Z,53.86
2023-06-30T11:35:48.502Z,53.99
2023-06-30T11:38:27.870Z,53.80
2023-06-30T11:41:06.024Z,53.74
2023-06-30T11:43:36.053Z,53.81
2023-06-30T11:46:06.598Z,53.85
2023-06-30T11:48:43.414Z,53.88
2023-06-30T11:51:13.857Z,53.96
2023-06-30T11:53:55.057Z,53.96
2023-06-30T11:56:31.849Z,53.99
2023-06-30T11:59:05.448Z,54.10
2023-06-30T12:01:38.347Z,54.17
2023-06-30T12:04:23.798Z,54.15
2023-06-30T12:06:50.705Z,54.10
2023-06-30T12:09:18.869Z,54.11
2023-06-30T12:11:48.624Z,54.21
2023-06-30T12:14:19.783Z,54.18
2023-06-30T12:17:01.409Z,54.16
2023-06-30T12:19:35.492Z,54.11
2023-06-30T12:22:11.403Z,54.00
2023-06-30T12:24:55.830Z,53.95
2023-06-30T12:27:22.650Z,54.17
2023-06-30T12:29:55.382Z,53.95
2023-06-30T12:32:33.914Z,54.00
2023-06-30T12:35:06.084Z,53.97
2023-06-30T12:37:45.780Z,53.94
2023-06-30T12:40:43.284Z,53.87
2023-06-30T12:43:15.750Z,53.92
2023-06-30T12:45:47.633Z,53.84
2023-06-30T12:48:21.619Z,53.83
2023-06-30T12:53:58.153Z,53.86
2023-06-30T12:56:30.504Z,53.81
2023-06-30T12:58:57.600Z,53.74
2023-06-30T13:01:30.371Z,53.79
2023-06-30T13:04:03.381Z,53.74
2023-06-30T13:06:30.292Z,53.73
2023-06-30T13:08:58.450Z,53.71
2023-06-30T13:11:25.417Z,53.71
2023-06-30T13:13:59.330Z,53.66
2023-06-30T13:16:32.108Z,53.68
2023-06-30T13:19:08.449Z,53.68
2023-06-30T13:21:41.087Z,53.67
2023-06-30T13:24:15.520Z,53.64
2023-06-30T13:26:49.483Z,53.66
2023-06-30T13:29:19.827Z,53.64
2023-06-30T13:31:47.192Z,53.62
2023-06-30T13:34:16.857Z,53.64
2023-06-30T13:36:47.915Z,53.63
2023-06-30T13:39:18.229Z,53.68
2023-06-30T13:41:54.429Z,53.69
2023-06-30T13:44:21.445Z,53.74
2023-06-30T13:46:50.637Z,53.73
2023-06-30T13:49:21.990Z,53.71
2023-06-30T13:52:02.283Z,53.73
2023-06-30T13:54:34.873Z,53.73
2023-06-30T13:57:04.218Z,53.69
2023-06-30T13:59:30.995Z,53.70
2023-06-30T14:02:10.924Z,53.72
2023-06-30T14:04:46.792Z,53.75
2023-06-30T14:07:17.522Z,53.83
2023-06-30T14:09:57.090Z,53.73
2023-06-30T14:12:48.229Z,53.53
2023-06-30T14:15:23.580Z,53.73
2023-06-30T14:17:53.893Z,53.75
2023-06-30T14:20:29.598Z,53.80
2023-06-30T14:23:08.149Z,53.77
2023-06-30T14:25:44.610Z,53.76
2023-06-30T14:28:17.968Z,53.77
2023-06-30T14:30:51.082Z,53.75
2023-06-30T14:33:23.988Z,53.76
2023-06-30T14:35:54.439Z,53.74
2023-06-30T14:38:33.321Z,53.75
2023-06-30T14:41:06.098Z,53.74
2023-06-30T14:44:00.158Z,53.81
2023-06-30T14:46:32.057Z,53.63
2023-06-30T14:49:12.719Z,53.74
2023-06-30T14:51:44.074Z,53.72
2023-06-30T14:54:17.509Z,53.79
2023-06-30T14:56:53.476Z,53.82
2023-06-30T14:59:26.166Z,53.69
2023-06-30T15:02:19.852Z,53.79
2023-06-30T15:04:49.950Z,53.99
2023-06-30T15:07:16.894Z,54.02
2023-06-30T15:09:50.002Z,54.17
2023-06-30T15:15:01.905Z,53.98
2023-06-30T15:17:36.234Z,54.07
2023-06-30T15:20:13.955Z,54.02
2023-06-30T15:22:48.791Z,54.04
2023-06-30T15:25:32.051Z,53.95
2023-06-30T15:28:27.485Z,54.04
2023-06-30T15:31:17.667Z,54.02
2023-06-30T15:33:52.034Z,54.00
2023-06-30T15:36:23.004Z,54.14
2023-06-30T15:38:52.660Z,53.90
2023-06-30T15:41:23.057Z,53.92
2023-06-30T15:43:56.409Z,53.93
2023-06-30T15:46:32.813Z,53.98
2023-06-30T15:49:05.377Z,54.06
2023-06-30T15:51:41.695Z,54.04
2023-06-30T15:54:15.893Z,53.91
2023-06-30T15:56:44.359Z,54.06
2023-06-30T15:59:13.668Z,54.04
2023-06-30T16:01:48.262Z,54.06
2023-06-30T16:04:24.583Z,54.14
2023-06-30T16:06:51.552Z,54.03
2023-06-30T16:09:25.171Z,53.92
2023-06-30T16:12:05.552Z,53.75
2023-06-30T16:14:35.154Z,53.78
2023-06-30T16:17:08.259Z,53.56
2023-06-30T16:19:41.066Z,53.51
2023-06-30T16:22:14.225Z,53.75
2023-06-30T16:24:47.455Z,53.97
2023-06-30T16:27:25.412Z,54.05
2023-06-30T16:30:13.001Z,53.75
2023-06-30T16:32:48.758Z,53.73
2023-06-30T16:35:19.463Z,53.63
2023-06-30T16:37:51.869Z,53.80
2023-06-30T16:40:24.649Z,53.87
2023-06-30T16:42:55.178Z,53.88
2023-06-30T16:45:26.883Z,53.97
2023-06-30T16:48:05.956Z,54.03
2023-06-30T16:50:37.867Z,53.92
2023-06-30T16:53:13.870Z,53.88
2023-06-30T16:55:44.790Z,53.81
2023-06-30T16:58:14.600Z,53.86
2023-06-30T17:00:44.051Z,53.93
2023-06-30T17:03:17.310Z,53.99
2023-06-30T17:05:50.290Z,53.84
2023-06-30T17:08:23.723Z,53.85
2023-06-30T17:10:57.256Z,53.89
2023-06-30T17:13:25.640Z,53.76
2023-06-30T17:15:58.729Z,53.69
2023-06-30T17:18:32.867Z,53.79
2023-06-30T17:20:59.554Z,53.79
2023-06-30T17:23:34.413Z,53.81
2023-06-30T17:26:09.317Z,53.76
2023-06-30T17:28:39.296Z,53.74
2023-06-30T17:31:10.772Z,53.82
2023-06-30T17:33:40.972Z,53.82
2023-06-30T17:36:11.389Z,53.92
2023-06-30T17:38:45.107Z,54.25
2023-06-30T17:41:23.016Z,54.50
2023-06-30T17:43:55.356Z,54.20
2023-06-30T17:46:25.541Z,54.24
2023-06-30T17:49:16.978Z,54.32
2023-06-30T17:51:46.785Z,54.57
2023-06-30T17:54:18.108Z,54.62
2023-06-30T17:56:46.119Z,54.56
2023-06-30T17:59:16.517Z,54.87
2023-06-30T18:01:46.109Z,55.09
2023-06-30T18:04:19.082Z,55.04
2023-06-30T18:07:04.165Z,55.19
2023-06-30T18:09:38.049Z,55.36
2023-06-30T18:12:08.001Z,55.50
2023-06-30T18:14:40.496Z,55.65
2023-06-30T18:17:07.584Z,55.67
2023-06-30T18:19:45.022Z,55.78
2023-06-30T18:22:15.159Z,55.79
2023-06-30T18:24:41.943Z,55.49
2023-06-30T18:27:08.764Z,55.70
2023-06-30T18:29:41.961Z,55.81
2023-06-30T18:32:12.460Z,55.81
2023-06-30T18:34:46.157Z,55.78
2023-06-30T18:37:16.919Z,55.75
2023-06-30T18:39:50.411Z,55.87
2023-06-30T18:42:22.166Z,55.75
2023-06-30T18:44:51.639Z,55.66
2023-06-30T18:47:18.432Z,55.78
2023-06-30T18:49:51.631Z,55.69
2023-06-30T18:52:22.842Z,55.63
2023-06-30T18:54:52.815Z,55.66
2023-06-30T18:57:22.403Z,55.46
2023-06-30T18:59:49.099Z,55.84
2023-06-30T19:02:20.265Z,55.96
2023-06-30T19:04:52.532Z,56.05
2023-06-30T19:07:26.057Z,56.00
2023-06-30T19:09:58.677Z,55.94
2023-06-30T19:12:31.041Z,56.17
2023-06-30T19:15:03.483Z,56.12
2023-06-30T19:17:34.931Z,56.04
2023-06-30T19:20:02.075Z,55.88
2023-06-30T19:22:31.913Z,56.02
2023-06-30T19:24:58.706Z,55.80
2023-06-30T19:27:35.178Z,55.86
2023-06-30T19:30:04.269Z,55.73
2023-06-30T19:32:34.019Z,55.74
2023-06-30T19:35:03.951Z,55.62
2023-06-30T19:37:34.117Z,55.68
2023-06-30T19:40:02.866Z,55.64
2023-06-30T19:42:33.451Z,55.64
2023-06-30T19:45:03.336Z,55.60
2023-06-30T19:47:33.793Z,55.56
2023-06-30T19:50:03.634Z,55.62
2023-06-30T19:52:30.607Z,55.48
2023-06-30T19:54:57.898Z,55.54
2023-06-30T19:57:24.703Z,55.50
2023-06-30T19:59:58.228Z,55.44
2023-06-30T20:08:05.305Z,55.34
2023-06-30T20:10:35.796Z,55.19
2023-06-30T20:13:07.720Z,55.15
2023-06-30T20:15:37.828Z,54.76
2023-06-30T20:18:04.765Z,54.41
2023-06-30T20:20:35.011Z,54.19
2023-06-30T20:23:04.684Z,54.13
2023-06-30T20:25:41.140Z,54.22
2023-06-30T20:28:15.179Z,54.05
2023-06-30T20:30:51.599Z,54.46
2023-06-30T20:33:23.199Z,54.23
2023-06-30T20:35:56.077Z,54.32
2023-06-30T20:38:23.096Z,54.43
2023-06-30T20:40:50.015Z,54.08
2023-06-30T20:43:23.857Z,54.24
2023-06-30T20:45:54.288Z,54.24
2023-06-30T20:48:24.228Z,54.06
2023-06-30T20:50:54.880Z,54.21
2023-06-30T20:53:24.834Z,54.32
2023-06-30T20:55:56.192Z,54.25
2023-06-30T20:58:29.262Z,54.23
2023-06-30T21:01:05.367Z,54.24
2023-06-30T21:03:41.368Z,54.32
2023-06-30T21:06:14.954Z,54.29
2023-06-30T21:08:47.855Z,54.36
2023-06-30T21:11:16.950Z,54.44
2023-06-30T21:13:49.547Z,54.44
2023-06-30T21:16:22.843Z,54.41
2023-06-30T21:18:49.664Z,54.52
2023-06-30T21:21:21.332Z,54.51
2023-06-30T21:23:48.586Z,54.65
2023-06-30T21:26:18.403Z,54.65
2023-06-30T21:28:59.172Z,54.73
2023-06-30T21:31:32.293Z,54.77
2023-06-30T21:34:05.300Z,54.79
2023-06-30T21:36:39.650Z,54.81
2023-06-30T21:39:11.954Z,54.85
2023-06-30T21:41:41.339Z,54.86
2023-06-30T21:44:14.389Z,54.94
2023-06-30T21:46:47.560Z,54.94
2023-06-30T21:49:18.564Z,54.94
2023-06-30T21:51:48.696Z,54.96
2023-06-30T21:54:31.251Z,55.05
2023-06-30T21:57:04.746Z,54.98
2023-06-30T21:59:39.270Z,55.05
2023-06-30T22:02:19.940Z,54.94
2023-06-30T22:04:57.814Z,55.08
2023-06-30T22:07:35.849Z,54.98
2023-06-30T22:10:17.266Z,55.10
2023-06-30T22:12:47.555Z,55.15
2023-06-30T22:15:17.167Z,55.45
2023-06-30T22:17:47.321Z,55.56
2023-06-30T22:20:15.624Z,55.52
2023-06-30T22:22:45.799Z,55.55
2023-06-30T22:25:12.604Z,55.53
2023-06-30T22:27:45.999Z,55.35
2023-06-30T22:30:16.427Z,55.35
2023-06-30T22:32:51.278Z,55.26
2023-06-30T22:35:24.484Z,55.43
2023-06-30T22:37:56.669Z,55.44
2023-06-30T22:40:26.101Z,55.37
2023-06-30T22:42:58.379Z,55.44
2023-06-30T22:45:28.165Z,55.43
2023-06-30T22:47:58.256Z,55.22
2023-06-30T22:50:31.788Z,55.24
2023-06-30T22:53:03.462Z,55.27
2023-06-30T22:55:38.906Z,55.23
2023-06-30T22:58:09.445Z,55.27
2023-06-30T23:00:41.852Z,55.22
2023-06-30T23:03:10.186Z,55.25
2023-06-30T23:05:43.785Z,55.29
2023-06-30T23:08:14.377Z,55.26
2023-06-30T23:10:49.151Z,55.37
2023-06-30T23:13:19.545Z,55.26
2023-06-30T23:15:53.242Z,55.26
2023-06-30T23:18:22.807Z,55.27
2023-06-30T23:20:52.360Z,55.40
2023-06-30T23:23:19.430Z,55.32
2023-06-30T23:25:49.815Z,55.57
2023-06-30T23:28:16.462Z,55.48
2023-06-30T23:30:46.995Z,55.47
2023-06-30T23:33:17.219Z,55.49
2023-06-30T23:35:45.289Z,55.41
2023-06-30T23:38:14.876Z,55.39
2023-06-30T23:40:41.581Z,55.35
2023-06-30T23:43:08.482Z,55.34
2023-06-30T23:45:36.066Z,55.32
2023-06-30T23:48:06.533Z,55.32
2023-06-30T23:50:33.327Z,55.35
2023-06-30T23:53:03.216Z,55.29
2023-06-30T23:55:35.036Z,55.34
2023-06-30T23:58:07.758Z,55.38
